createdAt,value
2023-03-28T00:01:08.757Z,1.60
2023-03-28T00:06:22.046Z,1.90
2023-03-28T00:08:51.391Z,2.00
2023-03-28T00:11:19.953Z,1.50
2023-03-28T00:14:00.601Z,1.60
2023-03-28T00:16:33.007Z,1.50
2023-03-28T00:19:01.102Z,1.20
2023-03-28T00:21:32.074Z,0.70
2023-03-28T00:24:06.655Z,1.10
2023-03-28T00:26:35.464Z,1.00
2023-03-28T00:29:03.488Z,2.20
2023-03-28T00:33:57.733Z,1.30
2023-03-28T00:36:26.768Z,1.00
2023-03-28T00:41:22.196Z,0.90
2023-03-28T00:43:50.895Z,0.50
2023-03-28T00:46:34.603Z,0.70
2023-03-28T00:49:12.350Z,0.30
2023-03-28T00:51:47.372Z,0.60
2023-03-28T00:54:17.325Z,0.70
2023-03-28T00:56:45.870Z,1.00
2023-03-28T00:59:14.088Z,0.90
2023-03-28T01:06:41.256Z,0.80
2023-03-28T01:09:08.207Z,0.80
2023-03-28T01:11:36.033Z,0.70
2023-03-28T01:14:07.515Z,0.70
2023-03-28T01:19:13.786Z,0.50
2023-03-28T01:21:55.840Z,0.40
2023-03-28T01:24:37.669Z,0.50
2023-03-28T01:27:45.894Z,0.50
2023-03-28T01:30:31.654Z,0.40
2023-03-28T01:33:16.042Z,0.20
2023-03-28T01:35:48.616Z,0.40
2023-03-28T01:41:12.166Z,0.50
2023-03-28T01:44:20.312Z,0.30
2023-03-28T01:46:56.030Z,0.50
2023-03-28T01:49:49.774Z,1.10
2023-03-28T01:52:38.757Z,-0.10
2023-03-28T01:55:21.479Z,1.30
2023-03-28T01:58:11.413Z,0.30
2023-03-28T02:00:43.675Z,-0.10
2023-03-28T02:03:12.063Z,0.10
2023-03-28T02:05:39.065Z,-0.20
2023-03-28T02:08:08.471Z,0.10
2023-03-28T02:10:37.750Z,0.20
2023-03-28T02:13:09.686Z,0.10
2023-03-28T02:18:13.610Z,0.00
2023-03-28T02:20:40.665Z,-0.10
2023-03-28T02:23:11.025Z,0.20
2023-03-28T02:28:07.300Z,0.30
2023-03-28T02:33:10.132Z,0.10
2023-03-28T02:35:43.324Z,0.40
2023-03-28T02:38:28.961Z,0.30
2023-03-28T02:41:03.001Z,-0.10
2023-03-28T02:44:04.088Z,0.10
2023-03-28T02:46:47.295Z,0.50
2023-03-28T02:49:50.375Z,0.20
2023-03-28T02:52:56.742Z,0.20
2023-03-28T02:55:45.013Z,0.30
2023-03-28T02:58:21.261Z,0.20
2023-03-28T03:03:16.748Z,0.10
2023-03-28T03:10:38.673Z,0.00
2023-03-28T03:15:35.633Z,0.10
2023-03-28T03:18:05.156Z,-0.20
2023-03-28T03:20:34.722Z,-0.10
2023-03-28T03:23:06.608Z,-0.10
2023-03-28T03:25:34.545Z,0.00
2023-03-28T03:30:28.773Z,0.30
2023-03-28T03:40:18.777Z,-0.10
2023-03-28T03:42:47.674Z,-0.30
2023-03-28T03:45:15.820Z,-0.20
2023-03-28T03:47:42.638Z,-0.20
2023-03-28T03:50:10.040Z,-0.30
2023-03-28T04:00:02.158Z,-0.20
2023-03-28T04:02:31.505Z,-0.10
2023-03-28T04:07:26.707Z,-0.20
2023-03-28T04:09:53.475Z,0.00
2023-03-28T04:12:22.347Z,-0.10
2023-03-28T04:14:51.353Z,-0.10
2023-03-28T04:17:23.350Z,-0.20
2023-03-28T04:19:50.309Z,-0.10
2023-03-28T04:24:45.880Z,-0.10
2023-03-28T04:27:12.653Z,-0.50
2023-03-28T04:29:41.749Z,-0.60
2023-03-28T04:32:11.193Z,-0.50
2023-03-28T04:34:39.075Z,0.60
2023-03-28T04:39:35.793Z,-0.50
2023-03-28T04:42:04.364Z,-0.60
2023-03-28T04:44:35.590Z,-0.40
2023-03-28T04:47:04.644Z,-0.80
2023-03-28T04:49:34.240Z,0.00
2023-03-28T04:54:31.045Z,-0.60
2023-03-28T04:56:57.882Z,0.60
2023-03-28T05:06:55.576Z,0.60
2023-03-28T05:11:51.854Z,0.60
2023-03-28T05:19:13.971Z,0.70
2023-03-28T05:24:08.678Z,0.50
2023-03-28T05:31:33.872Z,0.20
2023-03-28T05:34:02.936Z,0.10
2023-03-28T05:38:59.403Z,0.00
2023-03-28T05:53:47.603Z,0.50
2023-03-28T05:56:14.404Z,0.30
2023-03-28T06:01:12.845Z,0.30
2023-03-28T06:06:09.628Z,0.50
2023-03-28T06:28:17.155Z,0.90
2023-03-28T06:30:50.344Z,0.80
2023-03-28T06:33:17.125Z,1.00
2023-03-28T06:38:11.321Z,1.00
2023-03-28T06:40:42.797Z,1.10
2023-03-28T06:50:31.346Z,1.80
2023-03-28T06:52:58.184Z,1.30
2023-03-28T06:55:24.954Z,1.20
2023-03-28T06:57:54.169Z,1.40
2023-03-28T07:00:21.320Z,1.40
2023-03-28T07:02:50.839Z,1.50
2023-03-28T07:05:20.370Z,1.70
2023-03-28T07:07:49.815Z,1.70
2023-03-28T07:10:16.697Z,2.20
2023-03-28T07:12:43.528Z,1.80
2023-03-28T07:15:11.166Z,1.90
2023-03-28T07:17:40.447Z,2.00
2023-03-28T07:20:07.555Z,1.40
2023-03-28T07:25:04.077Z,2.10
2023-03-28T07:27:30.907Z,2.70
2023-03-28T07:29:57.670Z,2.30
2023-03-28T07:32:24.517Z,2.10
2023-03-28T07:37:18.552Z,2.20
2023-03-28T07:42:15.961Z,2.30
2023-03-28T07:49:39.712Z,2.40
2023-03-28T07:54:34.591Z,2.40
2023-03-28T08:09:22.685Z,2.60
2023-03-28T08:11:51.617Z,2.70
2023-03-28T08:14:18.613Z,2.90
2023-03-28T08:16:45.798Z,2.80
2023-03-28T08:19:13.320Z,3.00
2023-03-28T08:21:40.257Z,3.10
2023-03-28T08:24:08.065Z,3.20
2023-03-28T08:29:02.288Z,3.50
2023-03-28T08:33:56.674Z,3.30
2023-03-28T08:36:24.495Z,3.30
2023-03-28T08:44:17.082Z,3.30
2023-03-28T08:49:16.738Z,3.40
2023-03-28T08:51:59.353Z,4.60
2023-03-28T08:54:34.511Z,3.40
2023-03-28T08:57:02.284Z,3.50
2023-03-28T08:59:37.895Z,4.70
2023-03-28T09:02:20.921Z,4.00
2023-03-28T09:04:47.985Z,3.60
2023-03-28T09:07:35.142Z,3.80
2023-03-28T09:10:23.644Z,3.80
2023-03-28T09:13:20.397Z,3.10
2023-03-28T09:18:25.415Z,3.90
2023-03-28T09:20:54.646Z,3.50
2023-03-28T09:28:27.473Z,3.40
2023-03-28T09:33:27.673Z,2.80
2023-03-28T09:35:57.989Z,2.60
2023-03-28T09:38:34.509Z,2.40
2023-03-28T09:41:03.853Z,2.30
2023-03-28T09:43:48.179Z,2.10
2023-03-28T09:46:34.690Z,2.20
2023-03-28T09:49:01.578Z,2.00
2023-03-28T09:56:47.003Z,2.00
2023-03-28T09:59:28.879Z,2.00
2023-03-28T10:01:56.292Z,2.00
2023-03-28T10:04:29.382Z,2.10
2023-03-28T10:07:28.279Z,2.20
2023-03-28T10:09:58.653Z,2.00
2023-03-28T10:12:36.318Z,2.00
2023-03-28T10:17:36.981Z,2.20
2023-03-28T10:20:22.427Z,2.00
2023-03-28T10:22:52.829Z,2.10
2023-03-28T10:25:45.549Z,2.00
2023-03-28T10:28:27.285Z,2.00
2023-03-28T10:30:55.486Z,2.10
2023-03-28T10:33:35.655Z,2.10
2023-03-28T10:36:09.808Z,2.20
2023-03-28T10:38:47.219Z,1.60
2023-03-28T10:41:27.636Z,2.20
2023-03-28T10:43:55.042Z,2.10
2023-03-28T10:46:25.553Z,2.20
2023-03-28T10:48:59.057Z,2.10
2023-03-28T10:51:26.317Z,2.10
2023-03-28T10:54:22.354Z,1.90
2023-03-28T10:56:53.282Z,1.90
2023-03-28T10:59:30.977Z,2.00
2023-03-28T11:02:28.190Z,1.80
2023-03-28T11:05:04.280Z,2.00
2023-03-28T11:10:18.872Z,2.00
2023-03-28T11:13:06.828Z,2.00
2023-03-28T11:15:52.316Z,2.00
2023-03-28T11:18:35.255Z,2.00
2023-03-28T11:21:20.408Z,2.00
2023-03-28T11:24:06.258Z,2.20
2023-03-28T11:26:40.052Z,2.40
2023-03-28T11:32:07.101Z,2.30
2023-03-28T11:34:46.250Z,2.40
2023-03-28T11:37:27.702Z,2.30
2023-03-28T11:40:18.501Z,2.10
2023-03-28T11:42:56.248Z,2.10
2023-03-28T11:45:51.919Z,2.20
2023-03-28T11:48:29.437Z,2.10
2023-03-28T11:51:29.107Z,2.10
2023-03-28T11:54:09.717Z,2.40
2023-03-28T11:56:51.887Z,2.40
2023-03-28T11:59:35.579Z,2.40
2023-03-28T12:02:14.612Z,2.50
2023-03-28T12:05:03.384Z,2.50
2023-03-28T12:07:34.875Z,2.50
2023-03-28T12:10:24.736Z,2.60
2023-03-28T12:13:03.681Z,2.50
2023-03-28T12:15:59.972Z,2.60
2023-03-28T12:18:41.351Z,2.60
2023-03-28T12:21:27.285Z,2.50
2023-03-28T12:26:21.470Z,3.00
2023-03-28T12:28:57.403Z,3.10
2023-03-28T12:31:42.877Z,3.60
2023-03-28T12:34:27.179Z,3.40
2023-03-28T12:36:57.672Z,3.40
2023-03-28T12:39:35.439Z,3.50
2023-03-28T12:42:03.654Z,3.50
2023-03-28T12:44:36.985Z,3.50
2023-03-28T12:47:14.542Z,3.50
2023-03-28T12:49:43.444Z,3.60
2023-03-28T12:52:24.718Z,3.00
2023-03-28T12:55:01.087Z,3.30
2023-03-28T12:57:45.269Z,3.40
2023-03-28T13:00:54.372Z,3.30
2023-03-28T13:03:42.332Z,3.40
2023-03-28T13:06:20.682Z,3.40
2023-03-28T13:09:16.053Z,3.30
2023-03-28T13:12:20.495Z,3.50
2023-03-28T13:15:24.017Z,3.60
2023-03-28T13:18:32.097Z,3.60
2023-03-28T13:21:00.404Z,3.70
2023-03-28T13:23:34.562Z,3.80
2023-03-28T13:26:03.446Z,3.80
2023-03-28T13:28:32.167Z,3.70
2023-03-28T13:31:05.777Z,3.30
2023-03-28T13:33:37.261Z,3.50
2023-03-28T13:36:06.778Z,3.30
2023-03-28T13:38:45.973Z,3.50
2023-03-28T13:41:35.627Z,3.40
2023-03-28T13:44:06.425Z,3.30
2023-03-28T13:46:39.221Z,3.40
2023-03-28T13:49:13.140Z,3.50
2023-03-28T13:51:54.971Z,3.50
2023-03-28T13:54:22.236Z,3.50
2023-03-28T13:56:52.795Z,3.40
2023-03-28T13:59:32.587Z,3.40
2023-03-28T14:02:02.533Z,3.40
2023-03-28T14:04:33.631Z,3.60
2023-03-28T14:07:03.034Z,3.50
2023-03-28T14:09:29.780Z,2.90
2023-03-28T14:11:57.940Z,3.10
2023-03-28T14:14:49.868Z,2.60
2023-03-28T14:17:18.358Z,3.10
2023-03-28T14:19:56.865Z,3.00
2023-03-28T14:22:28.190Z,2.90
2023-03-28T14:25:02.621Z,3.10
2023-03-28T14:27:48.937Z,2.90
2023-03-28T14:30:23.242Z,3.00
2023-03-28T14:32:59.937Z,3.40
2023-03-28T14:35:30.947Z,2.70
2023-03-28T14:37:59.282Z,2.80
2023-03-28T14:40:26.313Z,2.60
2023-03-28T14:43:02.655Z,2.50
2023-03-28T14:45:31.614Z,2.50
2023-03-28T14:50:30.906Z,2.40
2023-03-28T14:53:05.703Z,2.40
2023-03-28T14:55:33.363Z,2.50
2023-03-28T14:58:03.034Z,2.40
2023-03-28T15:00:41.755Z,2.60
2023-03-28T15:03:16.380Z,2.60
2023-03-28T15:05:50.886Z,2.70
2023-03-28T15:08:43.798Z,2.60
2023-03-28T15:11:15.872Z,2.20
2023-03-28T15:14:05.160Z,2.60
2023-03-28T15:16:32.402Z,2.70
2023-03-28T15:19:15.818Z,3.20
2023-03-28T15:21:42.792Z,2.60
2023-03-28T15:24:13.772Z,2.60
2023-03-28T15:26:47.546Z,2.50
2023-03-28T15:29:21.540Z,3.00
2023-03-28T15:31:50.797Z,2.60
2023-03-28T15:34:27.365Z,2.60
2023-03-28T15:37:01.951Z,2.10
2023-03-28T15:39:32.025Z,2.50
2023-03-28T15:42:23.979Z,3.20
2023-03-28T15:44:59.663Z,2.30
2023-03-28T15:47:31.353Z,2.20
2023-03-28T15:50:13.532Z,2.20
2023-03-28T15:52:43.414Z,2.20
2023-03-28T15:55:16.617Z,2.10
2023-03-28T15:57:45.922Z,2.00
2023-03-28T16:00:45.109Z,2.00
2023-03-28T16:03:21.298Z,1.90
2023-03-28T16:05:53.294Z,1.90
2023-03-28T16:08:22.132Z,2.00
2023-03-28T16:10:48.843Z,1.70
2023-03-28T16:13:17.793Z,1.80
2023-03-28T16:15:44.715Z,1.90
2023-03-28T16:18:11.637Z,1.90
2023-03-28T16:20:39.734Z,1.80
2023-03-28T16:23:07.244Z,2.50
2023-03-28T16:28:01.673Z,1.90
2023-03-28T16:30:38.600Z,1.80
2023-03-28T16:35:34.122Z,1.80
2023-03-28T16:38:06.210Z,2.30
2023-03-28T16:40:33.581Z,1.70
2023-03-28T16:43:00.428Z,1.80
2023-03-28T16:45:27.324Z,1.80
2023-03-28T16:47:56.427Z,1.20
2023-03-28T16:50:23.336Z,2.30
2023-03-28T16:52:50.250Z,2.00
2023-03-28T16:55:17.575Z,1.60
2023-03-28T16:57:44.497Z,1.60
2023-03-28T17:00:17.790Z,1.60
2023-03-28T17:02:46.364Z,1.60
2023-03-28T17:07:40.960Z,1.50
2023-03-28T17:10:11.042Z,1.70
2023-03-28T17:12:37.899Z,1.50
2023-03-28T17:15:06.550Z,1.30
2023-03-28T17:17:33.479Z,1.30
2023-03-28T17:29:51.838Z,0.90
2023-03-28T17:32:18.814Z,1.10
2023-03-28T17:34:46.353Z,0.60
2023-03-28T17:37:15.820Z,0.90
2023-03-28T17:39:47.620Z,2.10
2023-03-28T17:44:43.997Z,0.70
2023-03-28T17:52:10.225Z,0.60
2023-03-28T17:54:37.136Z,0.80
2023-03-28T17:57:08.063Z,1.60
2023-03-28T17:59:37.126Z,0.80
2023-03-28T18:02:06.293Z,0.60
2023-03-28T18:07:02.600Z,0.70
2023-03-28T18:09:45.679Z,0.60
2023-03-28T18:12:13.262Z,0.90
2023-03-28T18:14:40.123Z,1.70
2023-03-28T18:17:06.984Z,0.70
2023-03-28T18:19:33.834Z,0.70
2023-03-28T18:22:03.168Z,0.70
2023-03-28T18:24:29.968Z,0.60
2023-03-28T18:27:00.095Z,0.50
2023-03-28T18:29:29.093Z,0.60
2023-03-28T18:31:55.909Z,0.70
2023-03-28T18:34:22.834Z,0.40
2023-03-28T18:39:18.298Z,0.50
2023-03-28T18:41:47.388Z,1.10
2023-03-28T18:46:41.772Z,0.70
2023-03-28T18:49:09.005Z,0.80
2023-03-28T18:51:38.225Z,0.60
2023-03-28T18:56:34.805Z,0.50
2023-03-28T19:01:32.902Z,0.80
2023-03-28T19:03:59.955Z,0.70
2023-03-28T19:06:26.894Z,0.80
2023-03-28T19:11:23.824Z,0.60
2023-03-28T19:13:56.512Z,0.80
2023-03-28T19:16:26.300Z,0.70
2023-03-28T19:18:53.107Z,0.80
2023-03-28T19:21:20.032Z,0.60
2023-03-28T19:23:48.196Z,0.90
2023-03-28T19:26:15.535Z,0.80
2023-03-28T19:28:44.838Z,0.50
2023-03-28T19:31:12.382Z,0.80
2023-03-28T19:33:40.743Z,0.70
2023-03-28T19:36:07.793Z,0.90
2023-03-28T19:41:10.712Z,0.80
2023-03-28T19:43:38.460Z,0.70
2023-03-28T19:46:06.874Z,0.60
2023-03-28T19:48:36.201Z,0.70
2023-03-28T19:51:03.156Z,1.10
2023-03-28T19:53:30.024Z,0.50
2023-03-28T19:55:59.100Z,0.80
2023-03-28T20:00:58.945Z,1.10
2023-03-28T20:08:24.988Z,0.90
2023-03-28T20:10:52.025Z,1.00
2023-03-28T20:13:18.916Z,0.80
2023-03-28T20:15:48.332Z,1.00
2023-03-28T20:18:20.494Z,0.90
2023-03-28T20:20:55.222Z,1.00
2023-03-28T20:23:23.696Z,0.90
2023-03-28T20:25:52.099Z,1.60
2023-03-28T20:28:24.435Z,0.90
2023-03-28T20:30:52.402Z,1.00
2023-03-28T20:33:20.601Z,1.00
2023-03-28T20:35:54.635Z,0.80
2023-03-28T20:38:21.470Z,1.00
2023-03-28T20:45:54.914Z,1.00
2023-03-28T20:48:26.074Z,0.90
2023-03-28T20:50:55.771Z,1.00
2023-03-28T20:53:22.639Z,1.10
2023-03-28T20:58:17.124Z,1.20
2023-03-28T21:00:46.251Z,0.90
2023-03-28T21:03:15.776Z,1.10
2023-03-28T21:10:42.407Z,1.00
2023-03-28T21:13:09.263Z,0.80
2023-03-28T21:15:36.194Z,1.10
2023-03-28T21:18:03.996Z,0.60
2023-03-28T21:20:30.891Z,1.10
2023-03-28T21:22:57.680Z,1.00
2023-03-28T21:25:24.505Z,1.20
2023-03-28T21:30:19.486Z,1.20
2023-03-28T21:32:48.538Z,1.00
2023-03-28T21:37:42.599Z,0.90
2023-03-28T21:40:09.796Z,0.80
2023-03-28T21:45:04.492Z,0.70
2023-03-28T21:47:31.561Z,0.40
2023-03-28T21:50:00.597Z,0.70
2023-03-28T21:52:27.791Z,0.30
2023-03-28T21:54:56.749Z,0.60
2023-03-28T21:59:50.969Z,0.80
2023-03-28T22:02:20.285Z,0.80
2023-03-28T22:04:49.379Z,0.80
2023-03-28T22:09:44.634Z,0.80
2023-03-28T22:12:11.408Z,0.80
2023-03-28T22:14:38.199Z,0.70
2023-03-28T22:17:07.477Z,1.00
2023-03-28T22:22:03.631Z,1.60
2023-03-28T22:24:33.191Z,0.90
2023-03-28T22:27:02.435Z,1.80
2023-03-28T22:29:29.275Z,0.70
2023-03-28T22:32:00.461Z,0.60
2023-03-28T22:34:29.121Z,1.40
2023-03-28T22:39:27.958Z,1.00
2023-03-28T22:44:23.022Z,1.60
2023-03-28T22:49:22.272Z,0.80
2023-03-28T22:51:49.460Z,0.80
2023-03-28T22:54:21.078Z,0.90
2023-03-28T22:56:49.057Z,0.90
2023-03-28T22:59:18.340Z,0.90
2023-03-28T23:06:43.273Z,1.00
2023-03-28T23:09:10.478Z,0.90
2023-03-28T23:16:32.921Z,1.80
2023-03-28T23:21:27.356Z,0.90
2023-03-28T23:26:26.409Z,0.80
2023-03-28T23:28:53.209Z,0.60
2023-03-28T23:33:47.829Z,0.60
2023-03-28T23:36:15.183Z,0.60
2023-03-28T23:41:09.274Z,0.80
2023-03-28T23:43:36.130Z,0.70
2023-03-28T23:51:01.924Z,0.60
2023-03-28T23:53:29.335Z,0.50
2023-03-28T23:55:56.143Z,0.40
2023-03-28T23:58:22.914Z,0.20
